sensor_id;sensor_type;location;lat;lon;timestamp;P1;durP1;ratioP1;P2;durP2;ratioP2
44048;SDS011;29717;47.028;15.470;2023-09-08T00:00:38;6.03;;;5.45;;
44048;SDS011;29717;47.028;15.470;2023-09-08T00:03:05;7.95;;;5.70;;
44048;SDS011;29717;47.028;15.470;2023-09-08T00:05:31;6.75;;;5.63;;
44048;SDS011;29717;47.028;15.470;2023-09-08T00:07:58;6.70;;;6.07;;
44048;SDS011;29717;47.028;15.470;2023-09-08T00:10:25;6.20;;;5.60;;
44048;SDS011;29717;47.028;15.470;2023-09-08T00:12:51;8.20;;;5.88;;
44048;SDS011;29717;47.028;15.470;2023-09-08T00:15:19;6.30;;;5.63;;
44048;SDS011;29717;47.028;15.470;2023-09-08T00:17:46;6.50;;;5.90;;
44048;SDS011;29717;47.028;15.470;2023-09-08T00:20:13;7.45;;;5.90;;
44048;SDS011;29717;47.028;15.470;2023-09-08T00:22:40;7.68;;;5.65;;
44048;SDS011;29717;47.028;15.470;2023-09-08T00:25:07;6.38;;;5.78;;
44048;SDS011;29717;47.028;15.470;2023-09-08T00:27:33;7.10;;;6.40;;
44048;SDS011;29717;47.028;15.470;2023-09-08T00:30:00;6.72;;;6.13;;
44048;SDS011;29717;47.028;15.470;2023-09-08T00:32:29;6.38;;;5.75;;
44048;SDS011;29717;47.028;15.470;2023-09-08T00:34:55;7.50;;;6.32;;
44048;SDS011;29717;47.028;15.470;2023-09-08T00:37:22;6.65;;;6.00;;
44048;SDS011;29717;47.028;15.470;2023-09-08T00:39:49;7.20;;;6.50;;
44048;SDS011;29717;47.028;15.470;2023-09-08T00:42:15;7.00;;;6.30;;
44048;SDS011;29717;47.028;15.470;2023-09-08T00:44:42;6.93;;;6.10;;
44048;SDS011;29717;47.028;15.470;2023-09-08T00:47:09;6.53;;;5.90;;
44048;SDS011;29717;47.028;15.470;2023-09-08T00:49:37;7.60;;;6.55;;
44048;SDS011;29717;47.028;15.470;2023-09-08T00:52:04;6.75;;;5.70;;
44048;SDS011;29717;47.028;15.470;2023-09-08T00:54:31;6.93;;;5.72;;
44048;SDS011;29717;47.028;15.470;2023-09-08T00:56:58;6.20;;;5.55;;
44048;SDS011;29717;47.028;15.470;2023-09-08T00:59:27;8.05;;;6.35;;
44048;SDS011;29717;47.028;15.470;2023-09-08T01:01:54;6.13;;;5.53;;
44048;SDS011;29717;47.028;15.470;2023-09-08T01:04:20;6.82;;;5.50;;
44048;SDS011;29717;47.028;15.470;2023-09-08T01:06:49;7.13;;;5.80;;
44048;SDS011;29717;47.028;15.470;2023-09-08T01:09:15;5.82;;;5.32;;
44048;SDS011;29717;47.028;15.470;2023-09-08T01:11:42;7.53;;;5.85;;
44048;SDS011;29717;47.028;15.470;2023-09-08T01:14:11;8.82;;;6.43;;
44048;SDS011;29717;47.028;15.470;2023-09-08T01:16:38;11.30;;;5.78;;
44048;SDS011;29717;47.028;15.470;2023-09-08T01:19:06;9.23;;;6.60;;
44048;SDS011;29717;47.028;15.470;2023-09-08T01:27:17;7.40;;;6.28;;
44048;SDS011;29717;47.028;15.470;2023-09-08T01:29:45;7.40;;;5.88;;
44048;SDS011;29717;47.028;15.470;2023-09-08T01:32:12;7.20;;;5.68;;
44048;SDS011;29717;47.028;15.470;2023-09-08T01:34:38;7.85;;;5.80;;
44048;SDS011;29717;47.028;15.470;2023-09-08T01:37:06;6.85;;;5.38;;
44048;SDS011;29717;47.028;15.470;2023-09-08T01:39:33;7.35;;;6.15;;
44048;SDS011;29717;47.028;15.470;2023-09-08T01:42:00;6.38;;;5.65;;
44048;SDS011;29717;47.028;15.470;2023-09-08T01:44:29;10.25;;;6.30;;
44048;SDS011;29717;47.028;15.470;2023-09-08T01:46:55;7.32;;;6.15;;
44048;SDS011;29717;47.028;15.470;2023-09-08T01:49:23;11.73;;;5.82;;
44048;SDS011;29717;47.028;15.470;2023-09-08T01:51:50;6.47;;;5.88;;
44048;SDS011;29717;47.028;15.470;2023-09-08T01:54:16;9.88;;;6.10;;
44048;SDS011;29717;47.028;15.470;2023-09-08T01:56:43;6.22;;;5.63;;
44048;SDS011;29717;47.028;15.470;2023-09-08T01:59:09;7.75;;;6.15;;
44048;SDS011;29717;47.028;15.470;2023-09-08T02:01:37;7.50;;;5.50;;
44048;SDS011;29717;47.028;15.470;2023-09-08T02:04:05;6.57;;;5.95;;
44048;SDS011;29717;47.028;15.470;2023-09-08T02:06:31;6.03;;;5.45;;
44048;SDS011;29717;47.028;15.470;2023-09-08T02:08:58;8.95;;;6.07;;
44048;SDS011;29717;47.028;15.470;2023-09-08T02:11:25;7.65;;;6.00;;
44048;SDS011;29717;47.028;15.470;2023-09-08T02:13:51;7.93;;;7.13;;
44048;SDS011;29717;47.028;15.470;2023-09-08T02:16:18;8.38;;;6.30;;
44048;SDS011;29717;47.028;15.470;2023-09-08T02:18:46;6.32;;;5.72;;
44048;SDS011;29717;47.028;15.470;2023-09-08T02:21:13;7.28;;;6.53;;
44048;SDS011;29717;47.028;15.470;2023-09-08T02:23:40;7.38;;;6.47;;
44048;SDS011;29717;47.028;15.470;2023-09-08T02:26:06;7.78;;;6.75;;
44048;SDS011;29717;47.028;15.470;2023-09-08T02:28:33;8.02;;;7.28;;
44048;SDS011;29717;47.028;15.470;2023-09-08T02:31:00;8.32;;;6.63;;
44048;SDS011;29717;47.028;15.470;2023-09-08T02:33:26;6.72;;;6.13;;
44048;SDS011;29717;47.028;15.470;2023-09-08T02:35:55;8.80;;;6.28;;
44048;SDS011;29717;47.028;15.470;2023-09-08T02:38:22;7.90;;;7.10;;
44048;SDS011;29717;47.028;15.470;2023-09-08T02:40:48;7.63;;;6.93;;
44048;SDS011;29717;47.028;15.470;2023-09-08T02:43:15;8.95;;;6.10;;
44048;SDS011;29717;47.028;15.470;2023-09-08T02:45:42;9.55;;;6.75;;
44048;SDS011;29717;47.028;15.470;2023-09-08T02:48:08;7.22;;;6.53;;
44048;SDS011;29717;47.028;15.470;2023-09-08T02:50:35;6.68;;;6.00;;
44048;SDS011;29717;47.028;15.470;2023-09-08T02:53:03;6.63;;;6.00;;
44048;SDS011;29717;47.028;15.470;2023-09-08T02:55:30;6.57;;;5.93;;
44048;SDS011;29717;47.028;15.470;2023-09-08T02:57:57;6.50;;;5.90;;
44048;SDS011;29717;47.028;15.470;2023-09-08T03:00:24;7.13;;;6.15;;
44048;SDS011;29717;47.028;15.470;2023-09-08T03:02:51;8.50;;;6.13;;
44048;SDS011;29717;47.028;15.470;2023-09-08T03:05:17;7.78;;;6.22;;
44048;SDS011;29717;47.028;15.470;2023-09-08T03:07:47;10.73;;;6.38;;
44048;SDS011;29717;47.028;15.470;2023-09-08T03:10:15;7.28;;;6.25;;
44048;SDS011;29717;47.028;15.470;2023-09-08T03:12:42;6.70;;;6.10;;
44048;SDS011;29717;47.028;15.470;2023-09-08T03:15:09;7.55;;;6.15;;
44048;SDS011;29717;47.028;15.470;2023-09-08T03:17:36;7.53;;;6.38;;
44048;SDS011;29717;47.028;15.470;2023-09-08T03:20:03;6.93;;;6.13;;
44048;SDS011;29717;47.028;15.470;2023-09-08T03:22:32;7.45;;;6.28;;
44048;SDS011;29717;47.028;15.470;2023-09-08T03:24:59;6.30;;;5.70;;
44048;SDS011;29717;47.028;15.470;2023-09-08T03:27:27;7.30;;;6.38;;
44048;SDS011;29717;47.028;15.470;2023-09-08T03:29:54;7.05;;;6.40;;
44048;SDS011;29717;47.028;15.470;2023-09-08T03:32:20;6.97;;;6.38;;
44048;SDS011;29717;47.028;15.470;2023-09-08T03:34:47;9.52;;;6.82;;
44048;SDS011;29717;47.028;15.470;2023-09-08T03:37:15;7.82;;;6.60;;
44048;SDS011;29717;47.028;15.470;2023-09-08T03:39:42;8.30;;;6.82;;
44048;SDS011;29717;47.028;15.470;2023-09-08T03:42:09;8.63;;;6.60;;
44048;SDS011;29717;47.028;15.470;2023-09-08T03:44:37;6.63;;;6.00;;
44048;SDS011;29717;47.028;15.470;2023-09-08T03:47:03;7.07;;;6.38;;
44048;SDS011;29717;47.028;15.470;2023-09-08T03:49:30;9.95;;;6.95;;
44048;SDS011;29717;47.028;15.470;2023-09-08T03:51:57;7.82;;;6.22;;
44048;SDS011;29717;47.028;15.470;2023-09-08T03:54:24;7.15;;;6.35;;
44048;SDS011;29717;47.028;15.470;2023-09-08T03:56:50;8.30;;;6.50;;
44048;SDS011;29717;47.028;15.470;2023-09-08T03:59:17;6.95;;;6.25;;
44048;SDS011;29717;47.028;15.470;2023-09-08T04:01:45;9.50;;;5.68;;
44048;SDS011;29717;47.028;15.470;2023-09-08T04:04:12;8.90;;;6.50;;
44048;SDS011;29717;47.028;15.470;2023-09-08T04:06:38;7.75;;;6.22;;
44048;SDS011;29717;47.028;15.470;2023-09-08T04:09:05;7.85;;;6.35;;
44048;SDS011;29717;47.028;15.470;2023-09-08T04:11:32;7.18;;;6.43;;
44048;SDS011;29717;47.028;15.470;2023-09-08T04:13:59;7.63;;;6.32;;
44048;SDS011;29717;47.028;15.470;2023-09-08T04:16:26;9.07;;;6.38;;
44048;SDS011;29717;47.028;15.470;2023-09-08T04:18:54;7.68;;;6.80;;
44048;SDS011;29717;47.028;15.470;2023-09-08T04:21:21;9.95;;;6.80;;
44048;SDS011;29717;47.028;15.470;2023-09-08T04:23:47;9.23;;;6.13;;
44048;SDS011;29717;47.028;15.470;2023-09-08T04:26:14;7.30;;;6.45;;
44048;SDS011;29717;47.028;15.470;2023-09-08T04:28:40;12.52;;;6.40;;
44048;SDS011;29717;47.028;15.470;2023-09-08T04:31:07;8.10;;;6.38;;
44048;SDS011;29717;47.028;15.470;2023-09-08T04:33:34;9.50;;;6.88;;
44048;SDS011;29717;47.028;15.470;2023-09-08T04:36:02;11.07;;;6.72;;
44048;SDS011;29717;47.028;15.470;2023-09-08T04:38:29;7.43;;;6.32;;
44048;SDS011;29717;47.028;15.470;2023-09-08T04:40:56;7.30;;;6.57;;
44048;SDS011;29717;47.028;15.470;2023-09-08T04:43:22;11.10;;;7.32;;
44048;SDS011;29717;47.028;15.470;2023-09-08T04:45:49;11.07;;;7.32;;
44048;SDS011;29717;47.028;15.470;2023-09-08T04:48:15;8.75;;;6.90;;
44048;SDS011;29717;47.028;15.470;2023-09-08T04:50:42;14.60;;;7.07;;
44048;SDS011;29717;47.028;15.470;2023-09-08T04:53:10;16.30;;;7.40;;
44048;SDS011;29717;47.028;15.470;2023-09-08T04:55:37;8.40;;;6.35;;
44048;SDS011;29717;47.028;15.470;2023-09-08T04:58:03;9.45;;;8.07;;
44048;SDS011;29717;47.028;15.470;2023-09-08T05:00:30;7.80;;;7.00;;
44048;SDS011;29717;47.028;15.470;2023-09-08T05:02:58;7.68;;;6.93;;
44048;SDS011;29717;47.028;15.470;2023-09-08T05:05:25;13.63;;;7.78;;
44048;SDS011;29717;47.028;15.470;2023-09-08T05:07:52;8.40;;;7.13;;
44048;SDS011;29717;47.028;15.470;2023-09-08T05:10:22;10.88;;;7.55;;
44048;SDS011;29717;47.028;15.470;2023-09-08T05:12:49;15.82;;;9.20;;
44048;SDS011;29717;47.028;15.470;2023-09-08T05:15:16;9.40;;;6.93;;
44048;SDS011;29717;47.028;15.470;2023-09-08T05:17:45;12.45;;;6.90;;
44048;SDS011;29717;47.028;15.470;2023-09-08T05:20:12;7.85;;;7.15;;
44048;SDS011;29717;47.028;15.470;2023-09-08T05:22:39;9.32;;;7.57;;
44048;SDS011;29717;47.028;15.470;2023-09-08T05:25:06;9.25;;;8.35;;
44048;SDS011;29717;47.028;15.470;2023-09-08T05:27:34;9.57;;;7.97;;
44048;SDS011;29717;47.028;15.470;2023-09-08T05:30:00;11.07;;;8.02;;
44048;SDS011;29717;47.028;15.470;2023-09-08T05:32:27;10.65;;;7.90;;
44048;SDS011;29717;47.028;15.470;2023-09-08T05:34:54;9.35;;;7.80;;
44048;SDS011;29717;47.028;15.470;2023-09-08T05:37:20;9.00;;;8.10;;
44048;SDS011;29717;47.028;15.470;2023-09-08T05:39:47;11.43;;;8.70;;
44048;SDS011;29717;47.028;15.470;2023-09-08T05:42:14;11.60;;;8.52;;
44048;SDS011;29717;47.028;15.470;2023-09-08T05:44:42;10.32;;;8.23;;
44048;SDS011;29717;47.028;15.470;2023-09-08T05:47:10;8.82;;;7.80;;
44048;SDS011;29717;47.028;15.470;2023-09-08T05:49:37;12.70;;;8.18;;
44048;SDS011;29717;47.028;15.470;2023-09-08T05:52:03;13.73;;;8.07;;
44048;SDS011;29717;47.028;15.470;2023-09-08T05:54:30;14.98;;;8.35;;
44048;SDS011;29717;47.028;15.470;2023-09-08T05:56:57;9.40;;;7.97;;
44048;SDS011;29717;47.028;15.470;2023-09-08T05:59:23;11.68;;;7.78;;
44048;SDS011;29717;47.028;15.470;2023-09-08T06:01:51;8.85;;;7.88;;
44048;SDS011;29717;47.028;15.470;2023-09-08T06:04:18;11.55;;;8.23;;
44048;SDS011;29717;47.028;15.470;2023-09-08T06:06:45;9.52;;;8.40;;
44048;SDS011;29717;47.028;15.470;2023-09-08T06:09:11;9.13;;;7.72;;
44048;SDS011;29717;47.028;15.470;2023-09-08T06:11:40;11.23;;;7.70;;
44048;SDS011;29717;47.028;15.470;2023-09-08T06:14:07;9.93;;;7.18;;
44048;SDS011;29717;47.028;15.470;2023-09-08T06:16:33;13.55;;;7.88;;
44048;SDS011;29717;47.028;15.470;2023-09-08T06:19:02;14.38;;;7.93;;
44048;SDS011;29717;47.028;15.470;2023-09-08T06:21:29;12.18;;;8.18;;
44048;SDS011;29717;47.028;15.470;2023-09-08T06:23:56;8.73;;;7.28;;
44048;SDS011;29717;47.028;15.470;2023-09-08T06:26:23;11.50;;;7.93;;
44048;SDS011;29717;47.028;15.470;2023-09-08T06:28:49;9.75;;;7.57;;
44048;SDS011;29717;47.028;15.470;2023-09-08T06:31:16;8.73;;;7.32;;
44048;SDS011;29717;47.028;15.470;2023-09-08T06:33:42;10.00;;;7.68;;
44048;SDS011;29717;47.028;15.470;2023-09-08T06:36:11;13.13;;;7.70;;
44048;SDS011;29717;47.028;15.470;2023-09-08T06:38:37;12.68;;;7.63;;
44048;SDS011;29717;47.028;15.470;2023-09-08T06:41:08;7.93;;;7.18;;
44048;SDS011;29717;47.028;15.470;2023-09-08T06:43:34;10.13;;;7.50;;
44048;SDS011;29717;47.028;15.470;2023-09-08T06:46:01;9.13;;;7.65;;
44048;SDS011;29717;47.028;15.470;2023-09-08T07:06:50;10.52;;;7.15;;
44048;SDS011;29717;47.028;15.470;2023-09-08T07:09:19;8.68;;;6.78;;
44048;SDS011;29717;47.028;15.470;2023-09-08T07:11:46;10.60;;;6.18;;
44048;SDS011;29717;47.028;15.470;2023-09-08T07:14:13;8.55;;;5.97;;
44048;SDS011;29717;47.028;15.470;2023-09-08T07:16:39;14.85;;;5.97;;
44048;SDS011;29717;47.028;15.470;2023-09-08T07:19:06;11.50;;;6.43;;
44048;SDS011;29717;47.028;15.470;2023-09-08T07:21:32;13.05;;;6.28;;
44048;SDS011;29717;47.028;15.470;2023-09-08T07:24:00;9.45;;;6.35;;
44048;SDS011;29717;47.028;15.470;2023-09-08T07:26:27;9.43;;;5.78;;
44048;SDS011;29717;47.028;15.470;2023-09-08T07:28:54;8.13;;;5.78;;
44048;SDS011;29717;47.028;15.470;2023-09-08T07:31:21;8.57;;;5.80;;
44048;SDS011;29717;47.028;15.470;2023-09-08T07:33:47;9.80;;;6.53;;
44048;SDS011;29717;47.028;15.470;2023-09-08T07:36:14;7.78;;;6.00;;
44048;SDS011;29717;47.028;15.470;2023-09-08T07:38:40;13.45;;;6.45;;
44048;SDS011;29717;47.028;15.470;2023-09-08T07:41:09;12.30;;;5.65;;
44048;SDS011;29717;47.028;15.470;2023-09-08T07:43:35;9.45;;;5.78;;
44048;SDS011;29717;47.028;15.470;2023-09-08T07:46:05;6.90;;;6.00;;
44048;SDS011;29717;47.028;15.470;2023-09-08T07:48:32;8.45;;;6.28;;
44048;SDS011;29717;47.028;15.470;2023-09-08T07:50:59;7.07;;;5.43;;
44048;SDS011;29717;47.028;15.470;2023-09-08T07:53:26;10.77;;;5.68;;
44048;SDS011;29717;47.028;15.470;2023-09-08T07:55:52;6.53;;;5.70;;
44048;SDS011;29717;47.028;15.470;2023-09-08T07:58:21;7.88;;;5.15;;
44048;SDS011;29717;47.028;15.470;2023-09-08T08:00:47;9.02;;;5.18;;
44048;SDS011;29717;47.028;15.470;2023-09-08T08:03:14;7.47;;;5.15;;
44048;SDS011;29717;47.028;15.470;2023-09-08T08:05:41;10.23;;;5.75;;
44048;SDS011;29717;47.028;15.470;2023-09-08T08:08:07;11.20;;;5.32;;
44048;SDS011;29717;47.028;15.470;2023-09-08T08:10:34;9.75;;;5.05;;
44048;SDS011;29717;47.028;15.470;2023-09-08T08:13:01;7.70;;;5.03;;
44048;SDS011;29717;47.028;15.470;2023-09-08T08:15:36;8.70;;;5.35;;
44048;SDS011;29717;47.028;15.470;2023-09-08T08:18:03;7.55;;;5.10;;
44048;SDS011;29717;47.028;15.470;2023-09-08T08:20:30;7.72;;;5.18;;
44048;SDS011;29717;47.028;15.470;2023-09-08T08:23:00;5.18;;;4.65;;
44048;SDS011;29717;47.028;15.470;2023-09-08T08:25:27;7.03;;;4.80;;
44048;SDS011;29717;47.028;15.470;2023-09-08T08:27:54;6.63;;;4.45;;
44048;SDS011;29717;47.028;15.470;2023-09-08T08:30:21;5.13;;;4.63;;
44048;SDS011;29717;47.028;15.470;2023-09-08T08:32:49;7.10;;;4.60;;
44048;SDS011;29717;47.028;15.470;2023-09-08T08:35:18;9.30;;;5.25;;
44048;SDS011;29717;47.028;15.470;2023-09-08T08:37:45;8.77;;;4.22;;
44048;SDS011;29717;47.028;15.470;2023-09-08T08:40:12;4.88;;;4.20;;
44048;SDS011;29717;47.028;15.470;2023-09-08T08:42:39;7.28;;;4.30;;
44048;SDS011;29717;47.028;15.470;2023-09-08T08:45:06;7.53;;;4.03;;
44048;SDS011;29717;47.028;15.470;2023-09-08T08:47:34;6.43;;;3.70;;
44048;SDS011;29717;47.028;15.470;2023-09-08T08:50:02;7.43;;;4.18;;
44048;SDS011;29717;47.028;15.470;2023-09-08T08:52:29;5.40;;;4.30;;
44048;SDS011;29717;47.028;15.470;2023-09-08T08:54:56;7.93;;;3.70;;
44048;SDS011;29717;47.028;15.470;2023-09-08T08:57:23;6.65;;;4.13;;
44048;SDS011;29717;47.028;15.470;2023-09-08T08:59:52;7.63;;;4.20;;
44048;SDS011;29717;47.028;15.470;2023-09-08T09:02:19;9.10;;;4.40;;
44048;SDS011;29717;47.028;15.470;2023-09-08T09:04:46;5.45;;;3.78;;
44048;SDS011;29717;47.028;15.470;2023-09-08T09:07:15;5.15;;;3.63;;
44048;SDS011;29717;47.028;15.470;2023-09-08T09:09:42;6.20;;;4.00;;
44048;SDS011;29717;47.028;15.470;2023-09-08T09:12:09;5.75;;;3.72;;
44048;SDS011;29717;47.028;15.470;2023-09-08T09:14:35;9.55;;;3.65;;
44048;SDS011;29717;47.028;15.470;2023-09-08T09:17:02;6.18;;;4.10;;
44048;SDS011;29717;47.028;15.470;2023-09-08T09:19:30;6.95;;;3.60;;
44048;SDS011;29717;47.028;15.470;2023-09-08T09:21:58;3.88;;;3.10;;
44048;SDS011;29717;47.028;15.470;2023-09-08T09:24:30;6.85;;;3.63;;
44048;SDS011;29717;47.028;15.470;2023-09-08T09:26:57;4.85;;;3.45;;
44048;SDS011;29717;47.028;15.470;2023-09-08T09:29:23;5.25;;;3.55;;
44048;SDS011;29717;47.028;15.470;2023-09-08T09:31:50;6.15;;;3.30;;
44048;SDS011;29717;47.028;15.470;2023-09-08T09:34:18;4.85;;;3.53;;
44048;SDS011;29717;47.028;15.470;2023-09-08T09:36:46;6.35;;;3.50;;
44048;SDS011;29717;47.028;15.470;2023-09-08T09:39:16;3.92;;;3.17;;
44048;SDS011;29717;47.028;15.470;2023-09-08T09:41:44;4.80;;;3.40;;
44048;SDS011;29717;47.028;15.470;2023-09-08T09:44:11;5.05;;;3.67;;
44048;SDS011;29717;47.028;15.470;2023-09-08T09:46:38;4.28;;;3.47;;
44048;SDS011;29717;47.028;15.470;2023-09-08T09:49:04;4.50;;;3.95;;
44048;SDS011;29717;47.028;15.470;2023-09-08T09:51:31;4.50;;;3.92;;
44048;SDS011;29717;47.028;15.470;2023-09-08T09:53:58;5.00;;;4.22;;
44048;SDS011;29717;47.028;15.470;2023-09-08T09:56:24;6.20;;;4.32;;
44048;SDS011;29717;47.028;15.470;2023-09-08T09:58:53;4.60;;;4.10;;
44048;SDS011;29717;47.028;15.470;2023-09-08T10:01:21;6.25;;;4.18;;
44048;SDS011;29717;47.028;15.470;2023-09-08T10:03:49;5.50;;;3.90;;
44048;SDS011;29717;47.028;15.470;2023-09-08T10:06:15;4.18;;;3.40;;
44048;SDS011;29717;47.028;15.470;2023-09-08T10:08:43;7.63;;;3.78;;
44048;SDS011;29717;47.028;15.470;2023-09-08T10:11:10;3.95;;;3.35;;
44048;SDS011;29717;47.028;15.470;2023-09-08T10:13:42;5.07;;;3.67;;
44048;SDS011;29717;47.028;15.470;2023-09-08T10:16:15;5.95;;;3.50;;
44048;SDS011;29717;47.028;15.470;2023-09-08T10:18:42;5.07;;;3.25;;
44048;SDS011;29717;47.028;15.470;2023-09-08T10:21:10;5.22;;;3.20;;
44048;SDS011;29717;47.028;15.470;2023-09-08T10:23:40;5.38;;;2.97;;
44048;SDS011;29717;47.028;15.470;2023-09-08T10:26:09;3.75;;;3.45;;
44048;SDS011;29717;47.028;15.470;2023-09-08T10:28:36;7.50;;;3.75;;
44048;SDS011;29717;47.028;15.470;2023-09-08T10:31:03;4.78;;;3.35;;
44048;SDS011;29717;47.028;15.470;2023-09-08T10:33:32;4.63;;;3.15;;
44048;SDS011;29717;47.028;15.470;2023-09-08T10:35:59;3.50;;;3.20;;
44048;SDS011;29717;47.028;15.470;2023-09-08T10:38:29;3.67;;;2.90;;
44048;SDS011;29717;47.028;15.470;2023-09-08T10:43:37;5.03;;;2.90;;
44048;SDS011;29717;47.028;15.470;2023-09-08T10:46:08;4.82;;;2.97;;
44048;SDS011;29717;47.028;15.470;2023-09-08T10:48:41;6.03;;;3.28;;
44048;SDS011;29717;47.028;15.470;2023-09-08T10:51:12;4.65;;;3.15;;
44048;SDS011;29717;47.028;15.470;2023-09-08T10:53:39;5.53;;;2.97;;
44048;SDS011;29717;47.028;15.470;2023-09-08T10:56:05;3.30;;;2.95;;
44048;SDS011;29717;47.028;15.470;2023-09-08T10:58:33;4.65;;;3.03;;
44048;SDS011;29717;47.028;15.470;2023-09-08T11:01:02;3.33;;;3.13;;
44048;SDS011;29717;47.028;15.470;2023-09-08T11:03:44;6.63;;;3.17;;
44048;SDS011;29717;47.028;15.470;2023-09-08T11:06:11;4.55;;;3.10;;
44048;SDS011;29717;47.028;15.470;2023-09-08T11:08:40;2.97;;;2.70;;
44048;SDS011;29717;47.028;15.470;2023-09-08T11:11:07;5.65;;;2.70;;
44048;SDS011;29717;47.028;15.470;2023-09-08T11:13:34;3.28;;;2.78;;
44048;SDS011;29717;47.028;15.470;2023-09-08T11:16:01;4.75;;;3.20;;
44048;SDS011;29717;47.028;15.470;2023-09-08T11:18:29;5.65;;;2.88;;
44048;SDS011;29717;47.028;15.470;2023-09-08T11:20:57;8.82;;;3.25;;
44048;SDS011;29717;47.028;15.470;2023-09-08T11:23:24;3.58;;;3.20;;
44048;SDS011;29717;47.028;15.470;2023-09-08T11:25:52;7.00;;;3.13;;
44048;SDS011;29717;47.028;15.470;2023-09-08T11:28:19;3.78;;;3.00;;
44048;SDS011;29717;47.028;15.470;2023-09-08T11:30:47;3.22;;;2.78;;
44048;SDS011;29717;47.028;15.470;2023-09-08T11:33:14;3.90;;;2.90;;
44048;SDS011;29717;47.028;15.470;2023-09-08T11:35:41;3.55;;;3.25;;
44048;SDS011;29717;47.028;15.470;2023-09-08T11:38:10;3.47;;;2.80;;
44048;SDS011;29717;47.028;15.470;2023-09-08T11:40:37;4.10;;;2.78;;
44048;SDS011;29717;47.028;15.470;2023-09-08T11:43:05;3.78;;;2.95;;
44048;SDS011;29717;47.028;15.470;2023-09-08T11:45:33;5.78;;;2.92;;
44048;SDS011;29717;47.028;15.470;2023-09-08T11:48:00;4.47;;;2.58;;
44048;SDS011;29717;47.028;15.470;2023-09-08T11:50:27;5.10;;;2.65;;
44048;SDS011;29717;47.028;15.470;2023-09-08T11:52:54;3.13;;;2.83;;
44048;SDS011;29717;47.028;15.470;2023-09-08T11:55:22;3.10;;;2.90;;
44048;SDS011;29717;47.028;15.470;2023-09-08T11:57:49;4.57;;;2.90;;
44048;SDS011;29717;47.028;15.470;2023-09-08T12:00:17;4.72;;;3.00;;
44048;SDS011;29717;47.028;15.470;2023-09-08T12:02:46;5.68;;;2.97;;
44048;SDS011;29717;47.028;15.470;2023-09-08T12:05:13;4.55;;;3.15;;
44048;SDS011;29717;47.028;15.470;2023-09-08T12:07:40;5.80;;;3.00;;
44048;SDS011;29717;47.028;15.470;2023-09-08T12:10:08;3.20;;;2.90;;
44048;SDS011;29717;47.028;15.470;2023-09-08T12:12:42;4.95;;;2.90;;
44048;SDS011;29717;47.028;15.470;2023-09-08T12:15:10;4.00;;;2.72;;
44048;SDS011;29717;47.028;15.470;2023-09-08T12:17:46;5.38;;;3.10;;
44048;SDS011;29717;47.028;15.470;2023-09-08T12:20:13;5.35;;;3.08;;
44048;SDS011;29717;47.028;15.470;2023-09-08T12:22:46;4.00;;;2.60;;
44048;SDS011;29717;47.028;15.470;2023-09-08T12:25:13;4.68;;;2.88;;
44048;SDS011;29717;47.028;15.470;2023-09-08T12:27:42;3.38;;;2.90;;
44048;SDS011;29717;47.028;15.470;2023-09-08T12:30:09;4.45;;;2.75;;
44048;SDS011;29717;47.028;15.470;2023-09-08T12:32:36;4.75;;;2.88;;
44048;SDS011;29717;47.028;15.470;2023-09-08T12:35:03;3.75;;;2.90;;
44048;SDS011;29717;47.028;15.470;2023-09-08T12:37:32;3.75;;;2.95;;
44048;SDS011;29717;47.028;15.470;2023-09-08T12:39:59;3.75;;;2.55;;
44048;SDS011;29717;47.028;15.470;2023-09-08T12:42:26;5.38;;;3.00;;
44048;SDS011;29717;47.028;15.470;2023-09-08T12:44:56;4.97;;;2.95;;
44048;SDS011;29717;47.028;15.470;2023-09-08T12:47:22;2.70;;;2.50;;
44048;SDS011;29717;47.028;15.470;2023-09-08T12:49:49;3.08;;;2.78;;
44048;SDS011;29717;47.028;15.470;2023-09-08T12:52:16;3.55;;;2.50;;
44048;SDS011;29717;47.028;15.470;2023-09-08T12:54:43;3.47;;;2.45;;
44048;SDS011;29717;47.028;15.470;2023-09-08T12:57:10;4.50;;;2.70;;
44048;SDS011;29717;47.028;15.470;2023-09-08T12:59:37;2.60;;;2.33;;
44048;SDS011;29717;47.028;15.470;2023-09-08T13:02:05;3.10;;;2.80;;
44048;SDS011;29717;47.028;15.470;2023-09-08T13:04:32;3.95;;;2.65;;
44048;SDS011;29717;47.028;15.470;2023-09-08T13:06:58;3.55;;;2.35;;
44048;SDS011;29717;47.028;15.470;2023-09-08T13:09:26;5.40;;;2.72;;
44048;SDS011;29717;47.028;15.470;2023-09-08T13:11:53;3.03;;;2.80;;
44048;SDS011;29717;47.028;15.470;2023-09-08T13:14:19;2.85;;;2.40;;
44048;SDS011;29717;47.028;15.470;2023-09-08T13:16:46;2.65;;;2.40;;
44048;SDS011;29717;47.028;15.470;2023-09-08T13:19:14;2.70;;;2.42;;
44048;SDS011;29717;47.028;15.470;2023-09-08T13:21:41;5.63;;;2.45;;
44048;SDS011;29717;47.028;15.470;2023-09-08T13:24:08;4.93;;;2.50;;
44048;SDS011;29717;47.028;15.470;2023-09-08T13:26:36;4.78;;;2.90;;
44048;SDS011;29717;47.028;15.470;2023-09-08T13:29:03;7.25;;;2.60;;
44048;SDS011;29717;47.028;15.470;2023-09-08T13:31:29;3.78;;;2.67;;
44048;SDS011;29717;47.028;15.470;2023-09-08T13:33:56;4.13;;;3.00;;
44048;SDS011;29717;47.028;15.470;2023-09-08T13:36:24;4.38;;;2.78;;
44048;SDS011;29717;47.028;15.470;2023-09-08T13:38:51;3.22;;;2.50;;
44048;SDS011;29717;47.028;15.470;2023-09-08T13:41:17;3.15;;;2.83;;
44048;SDS011;29717;47.028;15.470;2023-09-08T13:43:44;3.28;;;3.00;;
44048;SDS011;29717;47.028;15.470;2023-09-08T13:46:11;5.20;;;2.90;;
44048;SDS011;29717;47.028;15.470;2023-09-08T13:48:37;3.20;;;2.97;;
44048;SDS011;29717;47.028;15.470;2023-09-08T13:51:04;3.90;;;3.45;;
44048;SDS011;29717;47.028;15.470;2023-09-08T13:53:32;5.70;;;3.70;;
44048;SDS011;29717;47.028;15.470;2023-09-08T13:56:00;3.58;;;3.20;;
44048;SDS011;29717;47.028;15.470;2023-09-08T13:58:27;5.85;;;3.42;;
44048;SDS011;29717;47.028;15.470;2023-09-08T14:00:54;4.32;;;3.35;;
44048;SDS011;29717;47.028;15.470;2023-09-08T14:03:20;6.22;;;5.03;;
44048;SDS011;29717;47.028;15.470;2023-09-08T14:05:47;4.72;;;4.05;;
44048;SDS011;29717;47.028;15.470;2023-09-08T14:08:14;4.68;;;3.38;;
44048;SDS011;29717;47.028;15.470;2023-09-08T14:10:42;5.05;;;2.97;;
44048;SDS011;29717;47.028;15.470;2023-09-08T14:13:09;4.28;;;3.38;;
44048;SDS011;29717;47.028;15.470;2023-09-08T14:15:35;5.68;;;3.20;;
44048;SDS011;29717;47.028;15.470;2023-09-08T14:18:02;5.15;;;3.50;;
44048;SDS011;29717;47.028;15.470;2023-09-08T14:20:29;4.30;;;3.42;;
44048;SDS011;29717;47.028;15.470;2023-09-08T14:22:56;4.28;;;3.40;;
44048;SDS011;29717;47.028;15.470;2023-09-08T14:25:22;4.63;;;3.63;;
44048;SDS011;29717;47.028;15.470;2023-09-08T14:27:50;4.88;;;3.70;;
44048;SDS011;29717;47.028;15.470;2023-09-08T14:30:17;4.15;;;3.75;;
44048;SDS011;29717;47.028;15.470;2023-09-08T14:32:44;4.75;;;3.83;;
44048;SDS011;29717;47.028;15.470;2023-09-08T14:35:11;3.40;;;3.10;;
44048;SDS011;29717;47.028;15.470;2023-09-08T14:37:38;6.05;;;3.88;;
44048;SDS011;29717;47.028;15.470;2023-09-08T14:40:05;8.85;;;3.67;;
44048;SDS011;29717;47.028;15.470;2023-09-08T14:42:32;4.30;;;3.78;;
44048;SDS011;29717;47.028;15.470;2023-09-08T14:45:01;6.20;;;3.75;;
44048;SDS011;29717;47.028;15.470;2023-09-08T14:47:27;6.40;;;4.18;;
44048;SDS011;29717;47.028;15.470;2023-09-08T14:49:54;6.22;;;3.78;;
44048;SDS011;29717;47.028;15.470;2023-09-08T14:52:22;4.35;;;3.95;;
44048;SDS011;29717;47.028;15.470;2023-09-08T14:54:48;5.25;;;4.10;;
44048;SDS011;29717;47.028;15.470;2023-09-08T14:57:15;6.07;;;4.43;;
44048;SDS011;29717;47.028;15.470;2023-09-08T14:59:43;4.50;;;3.55;;